ACA1121 KSYR-CYXU
Flight info
| Callsign | ACA1121 |
|---|---|
| Flight time | 0h 51m |
| Altitude | 16000 |
| Route | SYR V483 DINES DCT COLTS DCT ITPEG |
| Aircraft | A20N/M-SDE2E3FGHIRWXY/LB1 |
Departure
| Time | 2026-04-30 20:29 |
|---|---|
| Airport | Syracuse Hancock International Airport (KSYR) |
Arrival
| Time | 2026-04-30 21:21 |
|---|---|
| Airport | London International Airport (CYXU) |
| Time | Latitude | Longitude | Altitude | Speed | Heading |
|---|---|---|---|---|---|
| 2026-04-30 20:03 | 43.11351 | -76.10888 | 424 ft | 0 kts | 244° |
| 2026-04-30 20:19 | 43.11355 | -76.10878 | 417 ft | 2 kts | 239° |
| 2026-04-30 20:19 | 43.11361 | -76.10865 | 417 ft | 2 kts | 235° |
| 2026-04-30 20:19 | 43.11374 | -76.10842 | 412 ft | 2 kts | 217° |
| 2026-04-30 20:19 | 43.11383 | -76.10835 | 413 ft | 0 kts | 175° |
| 2026-04-30 20:20 | 43.11380 | -76.10834 | 412 ft | 2 kts | 175° |
| 2026-04-30 20:20 | 43.11349 | -76.10830 | 417 ft | 7 kts | 175° |
| 2026-04-30 20:21 | 43.11283 | -76.10823 | 421 ft | 12 kts | 175° |
| 2026-04-30 20:21 | 43.11195 | -76.10813 | 423 ft | 10 kts | 175° |
| 2026-04-30 20:21 | 43.11125 | -76.10817 | 421 ft | 12 kts | 180° |
| 2026-04-30 20:21 | 43.11044 | -76.10809 | 417 ft | 14 kts | 163° |
| 2026-04-30 20:22 | 43.11010 | -76.10693 | 427 ft | 15 kts | 90° |
| 2026-04-30 20:22 | 43.11011 | -76.10597 | 426 ft | 12 kts | 89° |
| 2026-04-30 20:22 | 43.11013 | -76.10544 | 424 ft | 7 kts | 87° |
| 2026-04-30 20:22 | 43.11016 | -76.10439 | 410 ft | 15 kts | 87° |
| 2026-04-30 20:23 | 43.11020 | -76.10331 | 416 ft | 13 kts | 87° |
| 2026-04-30 20:23 | 43.11022 | -76.10272 | 418 ft | 6 kts | 87° |
| 2026-04-30 20:23 | 43.11025 | -76.10199 | 418 ft | 9 kts | 87° |
| 2026-04-30 20:23 | 43.11028 | -76.10093 | 418 ft | 13 kts | 87° |
| 2026-04-30 20:24 | 43.11034 | -76.09947 | 417 ft | 15 kts | 88° |
| 2026-04-30 20:24 | 43.11037 | -76.09830 | 417 ft | 12 kts | 88° |
| 2026-04-30 20:24 | 43.11040 | -76.09718 | 420 ft | 12 kts | 88° |
| 2026-04-30 20:24 | 43.11042 | -76.09655 | 422 ft | 5 kts | 87° |
| 2026-04-30 20:25 | 43.11050 | -76.09467 | 423 ft | 13 kts | 87° |
| 2026-04-30 20:25 | 43.11052 | -76.09375 | 424 ft | 7 kts | 88° |
| 2026-04-30 20:26 | 43.11052 | -76.09313 | 424 ft | 3 kts | 95° |
| 2026-04-30 20:26 | 43.11029 | -76.09275 | 423 ft | 0 kts | 160° |
| 2026-04-30 20:27 | 43.10988 | -76.09265 | 420 ft | 7 kts | 178° |
| 2026-04-30 20:28 | 43.10925 | -76.09399 | 425 ft | 37 kts | 266° |
| 2026-04-30 20:28 | 43.10864 | -76.11560 | 529 ft | 172 kts | 270° |
| 2026-04-30 20:29 | 43.10742 | -76.15543 | 1954 ft | 224 kts | 269° |
| 2026-04-30 20:30 | 43.10416 | -76.22291 | 3815 ft | 246 kts | 268° |
| 2026-04-30 20:30 | 43.11543 | -76.28978 | 5064 ft | 248 kts | 291° |
| 2026-04-30 20:31 | 43.13366 | -76.35778 | 8290 ft | 261 kts | 287° |
| 2026-04-30 20:32 | 43.15108 | -76.43128 | 10817 ft | 296 kts | 286° |
| 2026-04-30 20:32 | 43.16452 | -76.48852 | 12002 ft | 327 kts | 286° |
| 2026-04-30 20:33 | 43.17155 | -76.51836 | 12959 ft | 332 kts | 286° |
| 2026-04-30 20:33 | 43.18594 | -76.57956 | 14705 ft | 341 kts | 286° |
| 2026-04-30 20:33 | 43.19322 | -76.61061 | 15476 ft | 345 kts | 285° |
| 2026-04-30 20:34 | 43.20792 | -76.67351 | 15979 ft | 347 kts | 285° |
| 2026-04-30 20:34 | 43.22261 | -76.73656 | 16013 ft | 347 kts | 285° |
| 2026-04-30 20:35 | 43.22993 | -76.76806 | 16013 ft | 347 kts | 285° |
| 2026-04-30 20:35 | 43.23726 | -76.79965 | 16018 ft | 347 kts | 285° |
| 2026-04-30 20:35 | 43.25177 | -76.86233 | 16021 ft | 347 kts | 285° |
| 2026-04-30 20:36 | 43.25907 | -76.89391 | 16032 ft | 347 kts | 285° |
| 2026-04-30 20:36 | 43.26635 | -76.92547 | 16032 ft | 347 kts | 285° |
| 2026-04-30 20:36 | 43.28086 | -76.98852 | 15766 ft | 346 kts | 285° |
| 2026-04-30 20:37 | 43.28809 | -77.01998 | 15577 ft | 345 kts | 285° |
| 2026-04-30 20:37 | 43.29287 | -77.04082 | 15409 ft | 346 kts | 285° |
| 2026-04-30 20:37 | 43.30008 | -77.07231 | 15163 ft | 346 kts | 285° |
| 2026-04-30 20:37 | 43.30646 | -77.10398 | 14906 ft | 343 kts | 278° |
| 2026-04-30 20:38 | 43.30841 | -77.13637 | 14662 ft | 340 kts | 267° |
| 2026-04-30 20:38 | 43.30560 | -77.16839 | 14414 ft | 337 kts | 257° |
| 2026-04-30 20:38 | 43.30074 | -77.19978 | 14160 ft | 334 kts | 257° |
| 2026-04-30 20:39 | 43.29143 | -77.26201 | 14296 ft | 336 kts | 257° |
| 2026-04-30 20:39 | 43.28676 | -77.29336 | 14468 ft | 335 kts | 257° |
| 2026-04-30 20:39 | 43.28214 | -77.32428 | 14592 ft | 336 kts | 257° |
| 2026-04-30 20:40 | 43.27270 | -77.38717 | 14199 ft | 335 kts | 257° |
| 2026-04-30 20:40 | 43.26801 | -77.41836 | 13953 ft | 333 kts | 257° |
| 2026-04-30 20:40 | 43.26331 | -77.44947 | 13701 ft | 332 kts | 257° |
| 2026-04-30 20:41 | 43.25395 | -77.51115 | 13148 ft | 330 kts | 257° |
| 2026-04-30 20:41 | 43.24927 | -77.54190 | 12878 ft | 328 kts | 257° |
| 2026-04-30 20:41 | 43.24463 | -77.57242 | 12605 ft | 325 kts | 257° |
| 2026-04-30 20:41 | 43.24002 | -77.60267 | 12346 ft | 324 kts | 257° |
| 2026-04-30 20:42 | 43.23540 | -77.63293 | 12089 ft | 323 kts | 257° |
| 2026-04-30 20:42 | 43.23086 | -77.66259 | 11825 ft | 322 kts | 257° |
| 2026-04-30 20:42 | 43.22170 | -77.72225 | 11303 ft | 317 kts | 257° |
| 2026-04-30 20:43 | 43.21713 | -77.75190 | 11042 ft | 318 kts | 257° |
| 2026-04-30 20:43 | 43.21254 | -77.78165 | 10789 ft | 318 kts | 258° |
| 2026-04-30 20:43 | 43.20797 | -77.81122 | 10538 ft | 316 kts | 258° |
| 2026-04-30 20:44 | 43.19906 | -77.86871 | 10259 ft | 297 kts | 258° |
| 2026-04-30 20:44 | 43.19486 | -77.89575 | 10138 ft | 284 kts | 258° |
| 2026-04-30 20:44 | 43.18699 | -77.94631 | 10026 ft | 264 kts | 258° |
| 2026-04-30 20:45 | 43.17925 | -77.99599 | 10016 ft | 269 kts | 258° |
| 2026-04-30 20:45 | 43.17531 | -78.02120 | 10031 ft | 270 kts | 258° |
| 2026-04-30 20:45 | 43.17138 | -78.04627 | 10031 ft | 270 kts | 258° |
| 2026-04-30 20:46 | 43.15957 | -78.12134 | 10022 ft | 266 kts | 258° |
| 2026-04-30 20:46 | 43.15563 | -78.14635 | 10017 ft | 272 kts | 258° |
| 2026-04-30 20:47 | 43.14768 | -78.19668 | 10029 ft | 270 kts | 258° |
| 2026-04-30 20:47 | 43.14372 | -78.22169 | 10031 ft | 268 kts | 258° |
| 2026-04-30 20:48 | 43.13581 | -78.27149 | 10026 ft | 268 kts | 258° |
| 2026-04-30 20:48 | 43.13182 | -78.29659 | 10026 ft | 270 kts | 258° |
| 2026-04-30 20:48 | 43.12788 | -78.32135 | 10001 ft | 272 kts | 258° |
| 2026-04-30 20:48 | 43.12385 | -78.34666 | 9880 ft | 269 kts | 258° |
| 2026-04-30 20:49 | 43.11989 | -78.37141 | 9751 ft | 266 kts | 258° |
| 2026-04-30 20:49 | 43.11593 | -78.39612 | 9612 ft | 267 kts | 258° |
| 2026-04-30 20:49 | 43.11196 | -78.42093 | 9476 ft | 268 kts | 258° |
| 2026-04-30 20:50 | 43.10400 | -78.47045 | 9197 ft | 268 kts | 258° |
| 2026-04-30 20:50 | 43.10001 | -78.49521 | 9081 ft | 264 kts | 258° |
| 2026-04-30 20:50 | 43.09606 | -78.51973 | 8947 ft | 263 kts | 258° |
| 2026-04-30 20:50 | 43.09211 | -78.54417 | 8812 ft | 264 kts | 258° |
| 2026-04-30 20:51 | 43.08815 | -78.56870 | 8689 ft | 264 kts | 258° |
| 2026-04-30 20:51 | 43.08020 | -78.61776 | 8417 ft | 264 kts | 259° |
| 2026-04-30 20:51 | 43.07631 | -78.64174 | 8291 ft | 261 kts | 258° |
| 2026-04-30 20:52 | 43.07235 | -78.66603 | 8155 ft | 261 kts | 259° |
| 2026-04-30 20:52 | 43.06841 | -78.69019 | 8019 ft | 261 kts | 259° |
| 2026-04-30 20:52 | 43.06046 | -78.73898 | 7754 ft | 264 kts | 259° |
| 2026-04-30 20:53 | 43.05647 | -78.76339 | 7620 ft | 261 kts | 259° |
| 2026-04-30 20:53 | 43.05251 | -78.78757 | 7493 ft | 261 kts | 259° |
| 2026-04-30 20:53 | 43.04854 | -78.81173 | 7362 ft | 260 kts | 259° |
| 2026-04-30 20:54 | 43.04062 | -78.85998 | 7103 ft | 259 kts | 259° |
| 2026-04-30 20:54 | 43.03665 | -78.88410 | 6975 ft | 261 kts | 259° |
| 2026-04-30 20:54 | 43.03268 | -78.90821 | 6849 ft | 259 kts | 259° |
| 2026-04-30 20:55 | 43.02476 | -78.95607 | 6594 ft | 257 kts | 259° |
| 2026-04-30 20:55 | 43.02082 | -78.97993 | 6469 ft | 259 kts | 259° |
| 2026-04-30 20:55 | 43.01685 | -79.00388 | 6335 ft | 258 kts | 259° |
| 2026-04-30 20:56 | 43.00898 | -79.05125 | 6080 ft | 256 kts | 259° |
| 2026-04-30 20:56 | 43.00502 | -79.07507 | 5944 ft | 258 kts | 259° |
| 2026-04-30 20:56 | 42.99707 | -79.12270 | 5684 ft | 258 kts | 259° |
| 2026-04-30 20:57 | 42.99310 | -79.14648 | 5566 ft | 257 kts | 258° |
| 2026-04-30 20:57 | 42.98911 | -79.17034 | 5436 ft | 256 kts | 259° |
| 2026-04-30 20:57 | 42.98515 | -79.19386 | 5292 ft | 253 kts | 259° |
| 2026-04-30 20:58 | 42.97726 | -79.24089 | 5037 ft | 254 kts | 259° |
| 2026-04-30 20:58 | 42.97330 | -79.26449 | 4906 ft | 255 kts | 259° |
| 2026-04-30 20:58 | 42.96941 | -79.28764 | 4778 ft | 254 kts | 258° |
| 2026-04-30 20:58 | 42.96545 | -79.31118 | 4651 ft | 255 kts | 259° |
| 2026-04-30 20:59 | 42.96218 | -79.35859 | 4385 ft | 252 kts | 268° |
| 2026-04-30 20:59 | 42.96133 | -79.38219 | 4254 ft | 247 kts | 268° |
| 2026-04-30 21:00 | 42.95957 | -79.42936 | 3986 ft | 251 kts | 268° |
| 2026-04-30 21:00 | 42.95773 | -79.47620 | 3729 ft | 250 kts | 268° |
| 2026-04-30 21:01 | 42.95583 | -79.52324 | 3473 ft | 247 kts | 268° |
| 2026-04-30 21:01 | 42.95488 | -79.54660 | 3344 ft | 246 kts | 268° |
| 2026-04-30 21:01 | 42.95299 | -79.59273 | 3097 ft | 241 kts | 268° |
| 2026-04-30 21:02 | 42.95206 | -79.61547 | 3060 ft | 239 kts | 267° |
| 2026-04-30 21:02 | 42.95111 | -79.63845 | 3074 ft | 245 kts | 268° |
| 2026-04-30 21:02 | 42.95014 | -79.66152 | 3069 ft | 241 kts | 267° |
| 2026-04-30 21:02 | 42.94919 | -79.68426 | 3063 ft | 243 kts | 268° |
| 2026-04-30 21:03 | 42.94821 | -79.70761 | 3062 ft | 245 kts | 267° |
| 2026-04-30 21:03 | 42.94724 | -79.73057 | 3058 ft | 243 kts | 267° |
| 2026-04-30 21:03 | 42.94626 | -79.75362 | 3057 ft | 242 kts | 267° |
| 2026-04-30 21:03 | 42.94528 | -79.77655 | 3056 ft | 245 kts | 267° |
| 2026-04-30 21:04 | 42.94431 | -79.79968 | 3044 ft | 242 kts | 267° |
| 2026-04-30 21:04 | 42.94330 | -79.82305 | 3054 ft | 250 kts | 267° |
| 2026-04-30 21:04 | 42.94127 | -79.86962 | 3049 ft | 247 kts | 267° |
| 2026-04-30 21:05 | 42.94022 | -79.89293 | 3050 ft | 245 kts | 267° |
| 2026-04-30 21:05 | 42.93919 | -79.91586 | 3055 ft | 246 kts | 267° |
| 2026-04-30 21:05 | 42.93816 | -79.93916 | 3050 ft | 246 kts | 267° |
| 2026-04-30 21:05 | 42.93713 | -79.96246 | 3053 ft | 245 kts | 267° |
| 2026-04-30 21:06 | 42.93610 | -79.98567 | 3049 ft | 246 kts | 267° |
| 2026-04-30 21:06 | 42.93509 | -80.00899 | 3050 ft | 245 kts | 267° |
| 2026-04-30 21:06 | 42.93406 | -80.03224 | 3051 ft | 245 kts | 267° |
| 2026-04-30 21:06 | 42.93305 | -80.05545 | 3052 ft | 246 kts | 267° |
| 2026-04-30 21:07 | 42.93202 | -80.07876 | 3060 ft | 247 kts | 267° |
| 2026-04-30 21:07 | 42.93097 | -80.10202 | 3054 ft | 243 kts | 267° |
| 2026-04-30 21:07 | 42.92992 | -80.12511 | 3048 ft | 246 kts | 267° |
| 2026-04-30 21:07 | 42.92885 | -80.14852 | 3058 ft | 246 kts | 267° |
| 2026-04-30 21:08 | 42.92777 | -80.17175 | 3053 ft | 245 kts | 268° |
| 2026-04-30 21:08 | 42.92668 | -80.19486 | 3065 ft | 242 kts | 268° |
| 2026-04-30 21:08 | 42.92561 | -80.21702 | 3054 ft | 226 kts | 268° |
| 2026-04-30 21:08 | 42.92462 | -80.23738 | 3065 ft | 210 kts | 268° |
| 2026-04-30 21:09 | 42.92371 | -80.25697 | 3068 ft | 208 kts | 268° |
| 2026-04-30 21:09 | 42.92281 | -80.27671 | 3070 ft | 209 kts | 269° |
| 2026-04-30 21:09 | 42.92189 | -80.29668 | 3073 ft | 210 kts | 268° |
| 2026-04-30 21:09 | 42.92096 | -80.31630 | 3065 ft | 206 kts | 268° |
| 2026-04-30 21:10 | 42.92002 | -80.33603 | 3073 ft | 211 kts | 268° |
| 2026-04-30 21:10 | 42.91909 | -80.35607 | 3067 ft | 211 kts | 268° |
| 2026-04-30 21:10 | 42.91816 | -80.37580 | 3079 ft | 208 kts | 268° |
| 2026-04-30 21:10 | 42.91719 | -80.39555 | 3068 ft | 209 kts | 268° |
| 2026-04-30 21:11 | 42.91623 | -80.41525 | 3071 ft | 207 kts | 268° |
| 2026-04-30 21:11 | 42.91529 | -80.43498 | 3077 ft | 210 kts | 269° |
| 2026-04-30 21:11 | 42.91433 | -80.45488 | 3070 ft | 208 kts | 269° |
| 2026-04-30 21:11 | 42.91336 | -80.47452 | 3068 ft | 209 kts | 268° |
| 2026-04-30 21:12 | 42.91239 | -80.49398 | 3074 ft | 209 kts | 269° |
| 2026-04-30 21:12 | 42.91143 | -80.51370 | 3074 ft | 215 kts | 269° |
| 2026-04-30 21:12 | 42.91038 | -80.53628 | 3357 ft | 254 kts | 268° |
| 2026-04-30 21:12 | 42.90917 | -80.56034 | 4488 ft | 253 kts | 268° |
| 2026-04-30 21:13 | 42.90798 | -80.58402 | 5274 ft | 252 kts | 268° |
| 2026-04-30 21:13 | 42.90680 | -80.60816 | 5687 ft | 255 kts | 267° |
| 2026-04-30 21:13 | 42.90560 | -80.63205 | 5910 ft | 251 kts | 268° |
| 2026-04-30 21:13 | 42.90441 | -80.65584 | 6016 ft | 255 kts | 267° |
| 2026-04-30 21:14 | 42.90320 | -80.67995 | 6018 ft | 250 kts | 267° |
| 2026-04-30 21:14 | 42.90201 | -80.70343 | 6021 ft | 250 kts | 267° |
| 2026-04-30 21:14 | 42.90080 | -80.72749 | 6015 ft | 254 kts | 267° |
| 2026-04-30 21:14 | 42.89958 | -80.75153 | 6021 ft | 253 kts | 267° |
| 2026-04-30 21:15 | 42.89837 | -80.77512 | 6024 ft | 256 kts | 267° |
| 2026-04-30 21:15 | 42.89712 | -80.79920 | 6022 ft | 252 kts | 267° |
| 2026-04-30 21:15 | 42.89588 | -80.82330 | 6026 ft | 257 kts | 267° |
| 2026-04-30 21:15 | 42.89464 | -80.84722 | 6023 ft | 250 kts | 267° |
| 2026-04-30 21:16 | 42.89414 | -80.87111 | 6022 ft | 253 kts | 274° |
| 2026-04-30 21:16 | 42.89512 | -80.89499 | 6025 ft | 250 kts | 274° |
| 2026-04-30 21:16 | 42.89610 | -80.91849 | 6000 ft | 248 kts | 274° |
| 2026-04-30 21:16 | 42.89705 | -80.94193 | 5845 ft | 245 kts | 274° |
| 2026-04-30 21:17 | 42.89796 | -80.96475 | 5712 ft | 236 kts | 275° |
| 2026-04-30 21:17 | 42.90123 | -80.98592 | 5582 ft | 224 kts | 296° |
| 2026-04-30 21:17 | 42.91049 | -81.00208 | 5509 ft | 212 kts | 317° |
| 2026-04-30 21:17 | 42.92142 | -81.01480 | 5398 ft | 203 kts | 317° |
| 2026-04-30 21:18 | 42.93201 | -81.02742 | 5155 ft | 200 kts | 317° |
| 2026-04-30 21:18 | 42.94250 | -81.04005 | 4780 ft | 204 kts | 317° |
| 2026-04-30 21:18 | 42.95333 | -81.05310 | 4203 ft | 207 kts | 317° |
| 2026-04-30 21:18 | 42.96386 | -81.06578 | 3393 ft | 205 kts | 318° |
| 2026-04-30 21:19 | 42.97468 | -81.07878 | 2333 ft | 211 kts | 317° |
| 2026-04-30 21:19 | 42.98565 | -81.09197 | 1527 ft | 206 kts | 318° |
| 2026-04-30 21:19 | 42.99568 | -81.10396 | 1326 ft | 175 kts | 317° |
| 2026-04-30 21:19 | 43.00393 | -81.11382 | 1265 ft | 146 kts | 315° |
| 2026-04-30 21:20 | 43.01138 | -81.12298 | 1207 ft | 148 kts | 317° |
| 2026-04-30 21:20 | 43.01886 | -81.13193 | 1084 ft | 140 kts | 316° |
| 2026-04-30 21:20 | 43.02594 | -81.14021 | 943 ft | 129 kts | 316° |
| 2026-04-30 21:20 | 43.03161 | -81.14771 | 903 ft | 81 kts | 317° |
| 2026-04-30 21:21 | 43.03412 | -81.15063 | 910 ft | 27 kts | 323° |
| 2026-04-30 21:21 | 43.03511 | -81.15178 | 910 ft | 8 kts | 317° |
| 2026-04-30 21:21 | 43.03538 | -81.15338 | 909 ft | 8 kts | 227° |
| 2026-04-30 21:22 | 43.03502 | -81.15426 | 906 ft | 11 kts | 278° |
| 2026-04-30 21:22 | 43.03438 | -81.15375 | 907 ft | 14 kts | 138° |
| 2026-04-30 21:23 | 43.03360 | -81.15279 | 906 ft | 16 kts | 137° |
| 2026-04-30 21:23 | 43.03327 | -81.15239 | 906 ft | 0 kts | 138° |
| 2026-04-30 21:24 | 43.03299 | -81.15204 | 907 ft | 10 kts | 138° |
| 2026-04-30 21:24 | 43.03229 | -81.15122 | 904 ft | 17 kts | 139° |
| 2026-04-30 21:24 | 43.03161 | -81.15041 | 902 ft | 14 kts | 139° |
| 2026-04-30 21:25 | 43.03055 | -81.14912 | 901 ft | 11 kts | 137° |
| 2026-04-30 21:25 | 43.02990 | -81.14832 | 900 ft | 14 kts | 135° |
| 2026-04-30 21:25 | 43.02946 | -81.14799 | 900 ft | 7 kts | 192° |
| 2026-04-30 21:26 | 43.02908 | -81.14828 | 902 ft | 0 kts | 243° |